Time;durP1;ratioP1;P1;durP2;ratioP2;P2;SDS_P1;SDS_P2;PMS_P1;PMS_P2;Temp;Humidity;BMP_temperature;BMP_pressure;BME280_temperature;BME280_humidity;BME280_pressure;Samples;Min_cycle;Max_cycle;Signal;HPM_P1;HPM_P2
2022/01/16 00:01:45;;;;;;;5.57;2.07;;;;;;;-7.44;76.48;96678.00;1835237;78;20999;-67
2022/01/16 00:04:07;;;;;;;6.07;3.00;;;;;;;-7.49;76.51;96662.70;1831237;78;21051;-67
2022/01/16 00:06:37;;;;;;;7.87;3.77;;;;;;;-7.55;76.53;96671.69;1835199;78;21000;-67
2022/01/16 00:09:05;;;;;;;5.33;2.80;;;;;;;-7.77;76.53;96666.36;1833943;78;20988;-67
2022/01/16 00:11:33;;;;;;;7.53;3.70;;;;;;;-7.70;76.90;96656.16;1835206;78;20979;-67
2022/01/16 00:13:59;;;;;;;7.30;3.93;;;;;;;-7.80;76.84;96657.20;1835306;78;20978;-67
2022/01/16 00:16:26;;;;;;;7.33;4.13;;;;;;;-7.73;77.16;96667.48;1835049;78;21019;-67
2022/01/16 00:18:52;;;;;;;6.77;3.47;;;;;;;-7.68;77.09;96667.00;1835303;78;21010;-67
2022/01/16 00:21:23;;;;;;;13.37;3.83;;;;;;;-7.62;77.05;96661.40;1835285;78;21011;-67
2022/01/16 00:23:52;;;;;;;5.80;3.10;;;;;;;-7.59;76.90;96652.63;1830971;78;21011;-67
2022/01/16 00:26:21;;;;;;;5.13;2.90;;;;;;;-7.71;76.42;96646.67;1835195;78;21015;-67
2022/01/16 00:28:52;;;;;;;9.77;3.67;;;;;;;-7.98;76.45;96655.55;1835259;78;21003;-67
2022/01/16 00:31:22;;;;;;;6.80;3.77;;;;;;;-8.10;76.68;96665.83;1835040;78;21559;-67
2022/01/16 00:33:49;;;;;;;8.33;3.93;;;;;;;-8.01;77.23;96674.92;1835241;78;20987;-67
2022/01/16 00:36:19;;;;;;;10.93;3.60;;;;;;;-7.89;77.57;96669.36;1834950;78;21022;-67
2022/01/16 00:38:47;;;;;;;6.47;3.53;;;;;;;-7.84;77.10;96665.45;1835092;78;20987;-67
2022/01/16 00:41:18;;;;;;;6.67;3.23;;;;;;;-7.88;76.67;96698.06;1835170;78;21050;-67
2022/01/16 00:43:46;;;;;;;6.40;2.97;;;;;;;-7.86;76.94;96712.75;1835279;78;21011;-67
2022/01/16 00:46:12;;;;;;;7.33;3.23;;;;;;;-7.88;76.42;96683.97;1834226;78;21016;-67
2022/01/16 00:48:39;;;;;;;8.50;3.03;;;;;;;-7.95;76.35;96660.00;1831594;78;21099;-67
2022/01/16 00:51:07;;;;;;;6.57;2.80;;;;;;;-7.91;77.10;96661.96;1831600;78;20979;-67
2022/01/16 00:53:33;;;;;;;8.33;3.50;;;;;;;-7.82;77.27;96650.20;1831507;78;21000;-67
2022/01/16 00:56:00;;;;;;;5.97;3.20;;;;;;;-7.82;76.70;96652.36;1831674;78;20984;-67
2022/01/16 00:58:26;;;;;;;4.30;2.40;;;;;;;-7.78;77.08;96673.57;1831390;78;21038;-67
2022/01/16 01:00:53;;;;;;;4.10;2.40;;;;;;;-7.71;77.04;96651.80;1831753;78;21003;-67
2022/01/16 01:03:20;;;;;;;6.13;2.80;;;;;;;-7.72;76.36;96675.25;1831497;78;20952;-67
2022/01/16 01:05:47;;;;;;;5.90;2.70;;;;;;;-7.93;75.67;96678.53;1831663;78;20991;-67
2022/01/16 01:08:13;;;;;;;5.87;2.70;;;;;;;-8.07;75.49;96624.17;1831752;78;21031;-67
2022/01/16 01:10:42;;;;;;;5.77;2.53;;;;;;;-8.11;76.31;96635.02;1831604;78;20972;-67
2022/01/16 01:13:12;;;;;;;5.53;2.30;;;;;;;-8.02;76.89;96644.59;1831565;78;20995;-67
2022/01/16 01:15:44;;;;;;;5.27;2.63;;;;;;;-8.11;76.16;96645.25;1831835;78;21548;-67
2022/01/16 01:18:10;;;;;;;4.17;2.30;;;;;;;-8.06;76.84;96619.17;1831426;78;21039;-67
2022/01/16 01:20:40;;;;;;;6.40;2.33;;;;;;;-8.01;76.62;96555.47;1831697;78;21493;-67
2022/01/16 01:23:08;;;;;;;3.70;1.77;;;;;;;-7.99;76.43;96560.27;1831836;78;21007;-67
2022/01/16 01:25:36;;;;;;;6.27;2.07;;;;;;;-7.98;76.54;96585.52;1831455;78;22094;-67
2022/01/16 01:28:05;;;;;;;3.30;2.00;;;;;;;-8.00;76.17;96578.12;1831681;78;21433;-67
2022/01/16 01:30:31;;;;;;;5.20;2.40;;;;;;;-8.06;76.18;96564.52;1831802;78;20967;-67
2022/01/16 01:32:58;;;;;;;4.37;1.80;;;;;;;-8.21;75.54;96605.69;1826868;78;21508;-67
2022/01/16 01:35:26;;;;;;;3.47;1.67;;;;;;;-8.22;76.18;96621.84;1831644;78;20976;-67
2022/01/16 01:37:52;;;;;;;4.10;2.20;;;;;;;-8.21;76.46;96640.25;1831614;78;20976;-67
2022/01/16 01:40:26;;;;;;;4.63;2.40;;;;;;;-8.17;76.95;96639.69;1831396;78;21508;-66
2022/01/16 01:51:19;;;;;;;4.87;1.70;;;;;;;-8.27;77.11;96641.59;1831753;78;21122;-69
2022/01/16 01:53:47;;;;;;;7.17;1.80;;;;;;;-8.28;76.43;96585.20;1831217;78;20988;-69
2022/01/16 01:56:21;;;;;;;3.07;1.70;;;;;;;-8.28;76.93;96610.40;1831635;78;21020;-67
2022/01/16 01:58:47;;;;;;;5.17;1.90;;;;;;;-8.30;76.79;96627.31;1831696;78;20999;-67
2022/01/16 02:01:14;;;;;;;5.60;2.27;;;;;;;-8.34;76.55;96624.42;1831152;78;21019;-67
2022/01/16 02:06:29;;;;;;;6.30;2.47;;;;;;;-8.39;76.96;96627.98;1831921;78;20999;-67
2022/01/16 02:09:06;;;;;;;6.47;2.70;;;;;;;-8.34;76.97;96614.19;1831374;78;21011;-67
2022/01/16 02:11:34;;;;;;;4.97;2.83;;;;;;;-8.25;77.31;96628.03;1831625;78;21038;-67
2022/01/16 02:14:26;;;;;;;8.47;2.97;;;;;;;-8.34;76.71;96627.91;1831460;78;21012;-67
2022/01/16 02:28:18;;;;;;;5.10;2.17;;;;;;;-8.20;76.90;96659.97;1831728;78;20995;-67
2022/01/16 02:36:02;;;;;;;6.07;2.20;;;;;;;-8.30;76.76;96663.55;1831761;78;21007;-67
2022/01/16 02:38:29;;;;;;;4.40;1.70;;;;;;;-8.46;75.91;96647.95;1831298;78;21039;-67
2022/01/16 02:40:59;;;;;;;4.03;1.90;;;;;;;-8.55;76.25;96650.73;1831554;78;20964;-67
2022/01/16 02:43:32;;;;;;;6.10;2.10;;;;;;;-8.57;76.71;96659.56;1830884;78;21023;-66
2022/01/16 02:46:08;;;;;;;6.07;2.10;;;;;;;-8.50;76.95;96655.38;1829877;78;21118;-67
2022/01/16 02:48:20;;;;;;;5.03;2.10;;;;;;;-8.45;77.04;96654.44;1833190;78;21043;-67
2022/01/16 02:50:47;;;;;;;4.40;1.80;;;;;;;-8.46;76.56;96659.06;1837252;78;21023;-67
2022/01/16 02:53:13;;;;;;;6.40;2.43;;;;;;;-8.63;75.76;96655.30;1837531;78;21075;-67
2022/01/16 02:55:43;;;;;;;3.43;2.20;;;;;;;-8.63;76.69;96647.63;1837221;78;21043;-67
2022/01/16 02:58:09;;;;;;;4.77;2.33;;;;;;;-8.55;76.86;96653.28;1837310;78;21110;-67
2022/01/16 03:00:37;;;;;;;7.63;3.03;;;;;;;-8.49;76.77;96655.02;1837531;78;21460;-67
2022/01/16 03:03:04;;;;;;;6.93;2.30;;;;;;;-8.42;77.15;96660.16;1802104;78;21059;-67
2022/01/16 03:05:33;;;;;;;3.47;2.00;;;;;;;-8.53;75.79;96654.29;1837197;78;21059;-67
2022/01/16 03:07:59;;;;;;;3.77;1.90;;;;;;;-8.63;76.10;96649.30;1837384;78;21035;-66
2022/01/16 03:13:11;;;;;;;4.00;2.10;;;;;;;-8.52;76.60;96649.66;1837514;78;20995;-67
2022/01/16 03:15:39;;;;;;;7.93;2.10;;;;;;;-8.55;76.07;96654.17;1837520;78;21002;-67
2022/01/16 03:23:22;;;;;;;5.77;2.07;;;;;;;-8.66;76.72;96648.70;1837643;78;21481;-67
2022/01/16 03:25:51;;;;;;;7.50;2.20;;;;;;;-8.67;76.04;96650.73;1837099;78;20995;-67
2022/01/16 03:28:19;;;;;;;5.57;2.37;;;;;;;-8.76;75.99;96654.82;1808283;78;21026;-67
2022/01/16 03:30:46;;;;;;;5.30;2.00;;;;;;;-8.75;76.07;96653.14;1837612;78;20963;-67
2022/01/16 03:33:13;;;;;;;4.60;2.13;;;;;;;-8.75;76.23;96658.27;1837387;78;21000;-67
2022/01/16 03:35:40;;;;;;;3.57;2.00;;;;;;;-8.87;75.61;96649.31;1837638;78;21034;-67
2022/01/16 03:38:07;;;;;;;4.60;1.57;;;;;;;-8.87;76.32;96653.14;1837898;78;21003;-67
2022/01/16 03:40:33;;;;;;;1.53;0.97;;;;;;;-8.92;75.85;96646.81;1837332;78;21026;-67
2022/01/16 03:43:11;;;;;;;5.73;1.80;;;;;;;-9.11;75.75;96650.11;1837278;78;21015;-67
2022/01/16 03:45:29;;;;;;;4.70;2.07;;;;;;;-9.26;76.10;96660.09;1834940;78;21030;-68
2022/01/16 03:47:55;;;;;;;3.23;1.60;;;;;;;-9.31;76.35;96656.31;1839677;78;21003;-67
2022/01/16 03:50:22;;;;;;;4.30;1.63;;;;;;;-9.35;76.66;96646.23;1840718;78;20988;-67
2022/01/16 03:52:48;;;;;;;2.30;1.47;;;;;;;-9.31;77.29;96652.48;1840925;78;21030;-67
2022/01/16 03:55:15;;;;;;;7.10;2.07;;;;;;;-9.35;76.65;96653.91;1840809;78;21011;-67
2022/01/16 03:57:41;;;;;;;5.60;2.40;;;;;;;-9.33;77.17;96659.14;1840855;78;20972;-67
2022/01/16 04:00:09;;;;;;;3.77;1.97;;;;;;;-9.40;76.94;96661.63;1840765;78;21007;-66
2022/01/16 04:02:36;;;;;;;4.60;1.70;;;;;;;-9.40;77.23;96653.95;1840768;78;21003;-67
2022/01/16 04:05:03;;;;;;;2.80;1.30;;;;;;;-9.37;77.23;96651.26;1840848;78;21479;-67
2022/01/16 04:07:35;;;;;;;4.07;1.67;;;;;;;-9.31;77.10;96647.37;1840332;78;21079;-67
2022/01/16 04:09:59;;;;;;;4.00;1.57;;;;;;;-9.26;77.54;96648.20;1840303;78;20972;-66
2022/01/16 04:12:25;;;;;;;3.40;1.10;;;;;;;-9.14;77.61;96649.50;1840844;78;21034;-67
2022/01/16 04:17:23;;;;;;;3.17;1.50;;;;;;;-9.16;76.90;96654.88;1840729;78;21019;-66
2022/01/16 04:19:51;;;;;;;4.93;1.27;;;;;;;-9.12;76.98;96655.98;1840760;78;21011;-67
2022/01/16 04:22:19;;;;;;;2.40;0.97;;;;;;;-9.18;76.41;96652.20;1840512;78;21070;-67
2022/01/16 04:24:46;;;;;;;2.83;0.90;;;;;;;-9.24;76.58;96654.33;1840646;78;20987;-67
2022/01/16 04:27:13;;;;;;;4.90;1.57;;;;;;;-9.15;76.92;96663.04;1840483;78;21016;-67
2022/01/16 04:29:42;;;;;;;4.83;1.70;;;;;;;-9.16;76.47;96659.60;1840563;78;21015;-67
2022/01/16 04:32:10;;;;;;;3.73;1.50;;;;;;;-9.10;76.94;96646.77;1840711;78;21047;-67
2022/01/16 04:34:36;;;;;;;3.13;1.40;;;;;;;-9.04;76.98;96653.23;1840186;78;21083;-68
2022/01/16 04:37:04;;;;;;;6.03;2.13;;;;;;;-9.00;76.91;96647.53;1840692;78;20963;-67
2022/01/16 04:39:33;;;;;;;2.87;1.20;;;;;;;-8.99;76.37;96646.77;1840745;78;20987;-67
2022/01/16 04:44:46;;;;;;;2.23;1.10;;;;;;;-9.25;76.37;96655.48;1840902;78;20964;-67
2022/01/16 04:47:13;;;;;;;7.43;1.43;;;;;;;-9.30;76.37;96657.69;1839259;78;21043;-67
2022/01/16 04:49:39;;;;;;;2.73;1.20;;;;;;;-9.32;76.63;96654.16;1835188;78;21528;-67
2022/01/16 04:52:07;;;;;;;18.17;5.30;;;;;;;-9.40;76.07;96656.15;1834910;78;21076;-67
2022/01/16 04:54:34;;;;;;;4.33;1.30;;;;;;;-9.56;76.09;96655.77;1834911;78;21012;-67
2022/01/16 04:57:00;;;;;;;2.97;1.20;;;;;;;-9.59;76.83;96658.98;1834856;78;21520;-67
2022/01/16 04:59:27;;;;;;;4.67;1.27;;;;;;;-9.45;77.40;96647.25;1835227;78;20999;-67
2022/01/16 05:01:53;;;;;;;6.20;1.50;;;;;;;-9.36;77.16;96643.20;1835291;78;21000;-67
2022/01/16 05:04:19;;;;;;;3.60;1.10;;;;;;;-9.34;76.95;96639.09;1835201;78;21031;-67
2022/01/16 05:06:46;;;;;;;3.20;1.30;;;;;;;-9.31;76.78;96640.98;1835295;78;21433;-67
2022/01/16 05:09:12;;;;;;;4.23;1.67;;;;;;;-9.28;76.76;96635.70;1835148;78;21485;-67
2022/01/16 05:11:39;;;;;;;2.83;1.30;;;;;;;-9.38;76.08;96640.91;1835004;78;20995;-67
2022/01/16 05:16:41;;;;;;;3.60;1.40;;;;;;;-9.56;75.74;96640.84;1835006;78;21023;-67
2022/01/16 05:19:11;;;;;;;3.57;1.73;;;;;;;-9.52;76.72;96631.33;1834875;78;21067;-67
2022/01/16 05:21:39;;;;;;;5.60;1.60;;;;;;;-9.41;76.96;96632.63;1835287;78;21007;-67
2022/01/16 05:24:10;;;;;;;5.87;1.50;;;;;;;-9.47;76.23;96636.42;1834882;78;21015;-67
2022/01/16 05:26:42;;;;;;;4.83;1.97;;;;;;;-9.54;76.19;96626.52;1835241;78;21485;-67
2022/01/16 05:29:10;;;;;;;;;;;;;;;-9.58;76.31;96624.11;1837846;78;21055;-67
2022/01/16 05:31:37;;;;;;;2.73;1.27;;;;;;;-9.60;76.40;96633.31;1835082;78;20113;-67
2022/01/16 05:34:04;;;;;;;4.93;1.57;;;;;;;-9.63;76.40;96633.97;1834866;78;21095;-67
2022/01/16 05:36:30;;;;;;;4.13;1.63;;;;;;;-9.58;76.81;96628.81;1835428;78;20992;-67
2022/01/16 05:38:57;;;;;;;1.97;1.10;;;;;;;-9.49;77.10;96632.46;1834729;78;21079;-67
2022/01/16 05:41:24;;;;;;;4.53;1.60;;;;;;;-9.52;76.47;96630.05;1835049;78;21521;-66
2022/01/16 05:43:52;;;;;;;3.17;1.40;;;;;;;-9.50;76.97;96634.53;1835504;78;20996;-67
2022/01/16 05:46:18;;;;;;;3.63;2.10;;;;;;;-9.45;76.64;96637.39;1835152;78;21011;-67
2022/01/16 05:48:45;;;;;;;5.77;2.70;;;;;;;-9.53;76.21;96639.39;1834974;78;21027;-67
2022/01/16 05:51:12;;;;;;;6.37;1.77;;;;;;;-9.59;76.32;96641.10;1835150;78;20971;-67
2022/01/16 05:53:38;;;;;;;5.47;1.63;;;;;;;-9.57;76.70;96646.34;1835020;78;21027;-67
2022/01/16 05:56:05;;;;;;;3.07;1.40;;;;;;;-9.45;77.26;96647.25;1835006;78;21007;-67
2022/01/16 05:58:33;;;;;;;3.80;1.87;;;;;;;-9.35;76.96;96648.80;1835171;78;21473;-67
2022/01/16 06:00:59;;;;;;;4.93;2.03;;;;;;;-9.44;76.56;96655.80;1835161;78;21031;-67
2022/01/16 06:03:26;;;;;;;3.97;1.83;;;;;;;-9.55;75.81;96661.77;1834824;78;21058;-67
2022/01/16 06:05:52;;;;;;;4.43;1.97;;;;;;;-9.61;76.18;96655.42;1835081;78;21453;-66
2022/01/16 06:08:19;;;;;;;3.40;1.77;;;;;;;-9.51;76.89;96655.72;1835382;78;20980;-66
2022/01/16 06:10:45;;;;;;;2.97;1.70;;;;;;;-9.37;77.14;96662.76;1802327;78;20995;-67
2022/01/16 06:13:12;;;;;;;3.40;1.40;;;;;;;-9.45;75.96;96670.25;1835323;78;20996;-67
2022/01/16 06:15:40;;;;;;;3.80;1.70;;;;;;;-9.52;76.25;96673.12;1834769;78;21019;-67
2022/01/16 06:18:07;;;;;;;2.23;1.20;;;;;;;-9.55;76.15;96669.42;1835301;78;20992;-67
2022/01/16 06:20:35;;;;;;;4.23;1.50;;;;;;;-9.50;76.40;96669.02;1834996;78;21043;-67
2022/01/16 06:23:01;;;;;;;4.13;1.33;;;;;;;-9.40;76.86;96668.01;1835057;78;21031;-67
2022/01/16 06:25:28;;;;;;;3.57;1.33;;;;;;;-9.51;76.04;96663.39;1835306;78;20999;-67
2022/01/16 06:27:55;;;;;;;3.33;1.23;;;;;;;-9.59;75.81;96660.66;1834710;78;21012;-67
2022/01/16 06:30:22;;;;;;;3.00;1.53;;;;;;;-9.62;76.20;96665.15;1835208;78;21023;-67
2022/01/16 06:32:49;;;;;;;4.83;1.27;;;;;;;-9.66;76.08;96660.97;1835414;78;21031;-67
2022/01/16 06:35:16;;;;;;;2.87;1.67;;;;;;;-9.64;76.14;96664.14;1834739;78;21064;-67
2022/01/16 06:37:44;;;;;;;4.23;2.27;;;;;;;-9.62;76.67;96657.48;1835298;78;21027;-66
2022/01/16 06:40:13;;;;;;;4.97;1.97;;;;;;;-9.61;76.63;96655.42;1830243;78;21485;-66
2022/01/16 06:42:41;;;;;;;2.60;1.20;;;;;;;-9.58;76.41;96662.42;1834980;78;21453;-67
2022/01/16 06:45:10;;;;;;;2.30;1.30;;;;;;;-9.43;77.08;96658.45;1835078;78;21489;-67
2022/01/16 06:47:37;;;;;;;5.30;1.30;;;;;;;-9.33;76.46;96666.81;1833342;78;21123;-66
2022/01/16 06:50:06;;;;;;;2.57;1.30;;;;;;;-9.15;77.03;96656.65;1831495;78;21010;-67
2022/01/16 06:52:33;;;;;;;3.77;1.50;;;;;;;-9.01;76.74;96658.95;1831665;78;21050;-67
2022/01/16 06:55:00;;;;;;;2.20;1.00;;;;;;;-9.03;75.69;96661.78;1831706;78;21031;-67
2022/01/16 06:57:26;;;;;;;1.73;1.07;;;;;;;-9.16;75.17;96664.71;1831290;78;21080;-67
2022/01/16 06:59:53;;;;;;;5.77;2.70;;;;;;;-9.30;75.42;96671.74;1831895;78;21067;-67
2022/01/16 07:02:22;;;;;;;3.67;1.67;;;;;;;-9.29;75.87;96670.98;1831355;78;21011;-67
2022/01/16 07:04:48;;;;;;;3.23;1.60;;;;;;;-9.21;76.26;96669.00;1831929;78;21520;-67
2022/01/16 07:07:15;;;;;;;2.60;1.40;;;;;;;-9.00;77.01;96662.87;1831888;78;20980;-67
2022/01/16 07:09:41;;;;;;;3.70;1.67;;;;;;;-8.81;76.91;96657.83;1831727;78;20980;-67
2022/01/16 07:12:09;;;;;;;4.27;1.43;;;;;;;-8.80;75.92;96657.05;1831332;78;21036;-67
2022/01/16 07:14:36;;;;;;;5.17;2.73;;;;;;;-8.65;76.47;96650.86;1832348;78;20960;-67
2022/01/16 07:17:02;;;;;;;2.10;1.23;;;;;;;-8.45;76.43;96648.03;1831601;78;21027;-67
2022/01/16 07:19:29;;;;;;;1.60;1.00;;;;;;;-8.36;75.21;96647.78;1831484;78;21011;-67
2022/01/16 07:21:56;;;;;;;4.40;1.30;;;;;;;-8.35;74.81;96653.38;1831960;78;21456;-67
2022/01/16 07:24:22;;;;;;;3.97;1.87;;;;;;;-8.28;75.17;96653.91;1831939;78;21000;-67
2022/01/16 07:26:49;;;;;;;3.60;1.50;;;;;;;-8.30;74.86;96660.99;1831583;78;21023;-67
2022/01/16 07:29:15;;;;;;;3.33;1.40;;;;;;;-8.19;75.03;96658.80;1831579;78;21092;-67
2022/01/16 07:31:42;;;;;;;4.23;1.93;;;;;;;-8.20;74.67;96659.56;1831559;78;20983;-67
2022/01/16 07:34:09;;;;;;;3.53;2.00;;;;;;;-8.02;75.31;96674.03;1832024;78;21000;-67
2022/01/16 07:36:38;;;;;;;2.77;1.40;;;;;;;-8.12;74.49;96668.66;1831820;78;20960;-67
2022/01/16 07:39:04;;;;;;;2.43;1.37;;;;;;;-8.19;74.66;96674.17;1831674;78;21047;-67
2022/01/16 07:41:31;;;;;;;4.53;1.40;;;;;;;-8.22;74.86;96662.80;1831674;78;20991;-67
2022/01/16 07:43:57;;;;;;;8.37;3.03;;;;;;;-8.12;75.37;96657.14;1831822;78;20957;-67
2022/01/16 07:46:27;;;;;;;5.10;2.20;;;;;;;-8.10;75.18;96660.70;1831763;78;21023;-67
2022/01/16 07:48:54;;;;;;;6.57;2.80;;;;;;;-8.09;75.26;96652.26;1831810;78;21454;-67
2022/01/16 07:51:20;;;;;;;6.87;2.47;;;;;;;-8.03;75.50;96647.95;1831588;78;21059;-67
2022/01/16 07:53:47;;;;;;;9.30;3.53;;;;;;;-7.97;75.56;96648.35;1831452;78;20976;-67
2022/01/16 07:56:14;;;;;;;9.37;3.77;;;;;;;-7.83;76.12;96654.44;1831309;78;20991;-67
2022/01/16 07:58:42;;;;;;;8.47;3.10;;;;;;;-7.59;76.10;96649.19;1831608;78;21046;-67
2022/01/16 08:01:08;;;;;;;8.97;4.23;;;;;;;-7.41;75.68;96656.81;1827351;78;21007;-67
2022/01/16 08:03:35;;;;;;;18.13;6.43;;;;;;;-7.31;75.18;96646.38;1831514;78;21011;-67
2022/01/16 08:06:02;;;;;;;11.20;4.77;;;;;;;-7.28;74.91;96648.25;1831586;78;21090;-67
2022/01/16 08:08:29;;;;;;;11.43;5.30;;;;;;;-7.19;75.09;96647.19;1831866;78;21027;-66
2022/01/16 08:10:55;;;;;;;13.17;5.27;;;;;;;-7.10;74.94;96647.33;1831435;78;20972;-67
2022/01/16 08:13:23;;;;;;;11.90;5.27;;;;;;;-6.88;75.24;96639.32;1831287;78;20968;-67
2022/01/16 08:15:50;;;;;;;11.93;5.83;;;;;;;-6.70;75.20;96642.17;1831721;78;21508;-66
2022/01/16 08:18:16;;;;;;;16.80;7.00;;;;;;;-6.52;74.88;96643.77;1831789;78;21473;-67
2022/01/16 08:20:43;;;;;;;15.50;6.40;;;;;;;-6.35;75.03;96635.42;1831634;78;21004;-66
2022/01/16 08:23:10;;;;;;;18.73;7.77;;;;;;;-6.30;73.79;96639.16;1832035;78;20951;-67
2022/01/16 08:25:37;;;;;;;16.33;7.10;;;;;;;-6.25;73.83;96635.20;1831783;78;20975;-66
2022/01/16 08:28:05;;;;;;;17.30;7.53;;;;;;;-6.12;73.91;96639.44;1831529;78;21497;-67
2022/01/16 08:30:31;;;;;;;18.13;7.93;;;;;;;-6.00;73.86;96634.14;1831618;78;21076;-66
2022/01/16 08:32:58;;;;;;;17.07;8.20;;;;;;;-5.82;73.90;96635.25;1831806;78;20956;-67
2022/01/16 08:35:25;;;;;;;16.47;8.13;;;;;;;-5.62;73.62;96636.42;1831553;78;21466;-67
2022/01/16 08:37:51;;;;;;;19.67;9.03;;;;;;;-5.41;73.85;96640.69;1831753;78;20975;-66
2022/01/16 08:40:18;;;;;;;11.13;5.33;;;;;;;-5.20;73.23;96634.62;1831693;78;21004;-67
2022/01/16 08:42:45;;;;;;;15.93;7.73;;;;;;;-5.19;71.75;96635.50;1831700;78;21014;-66
2022/01/16 08:45:12;;;;;;;14.23;6.27;;;;;;;-5.19;72.06;96636.41;1831401;78;21023;-66
2022/01/16 08:47:38;;;;;;;13.80;7.93;;;;;;;-5.02;72.23;96624.50;1831681;78;20991;-67
2022/01/16 08:50:08;;;;;;;26.23;12.57;;;;;;;-4.76;71.80;96618.64;1833459;78;21069;-66
2022/01/16 08:52:35;;;;;;;13.97;7.77;;;;;;;-4.62;69.80;96618.63;1835314;78;21473;-66
2022/01/16 08:55:03;;;;;;;26.77;13.67;;;;;;;-4.48;68.63;96612.09;1834778;78;21511;-66
2022/01/16 08:57:29;;;;;;;21.83;11.47;;;;;;;-4.35;68.99;96601.23;1834987;78;21003;-67
2022/01/16 08:59:56;;;;;;;17.73;10.20;;;;;;;-4.08;69.25;96595.81;1834997;78;21004;-67
2022/01/16 09:02:23;;;;;;;19.20;10.13;;;;;;;-3.88;69.46;96594.66;1835349;78;20983;-66
2022/01/16 09:04:49;;;;;;;18.13;9.60;;;;;;;-3.56;70.23;96595.94;1834919;78;21087;-66
2022/01/16 09:07:17;;;;;;;18.27;10.33;;;;;;;-3.40;68.11;96594.14;1835306;78;20980;-67
2022/01/16 09:09:44;;;;;;;20.03;10.83;;;;;;;-3.35;67.16;96587.14;1834742;78;21015;-67
2022/01/16 09:12:11;;;;;;;23.10;11.13;;;;;;;-3.27;67.58;96579.37;1835036;78;21457;-66
2022/01/16 09:14:38;;;;;;;23.40;10.87;;;;;;;-3.16;67.33;96567.40;1835418;78;20980;-66
2022/01/16 09:17:05;;;;;;;24.90;13.27;;;;;;;-2.97;67.32;96573.95;1834993;78;21016;-66
2022/01/16 09:19:31;;;;;;;25.47;12.37;;;;;;;-2.72;67.20;96570.87;1834836;78;21079;-66
2022/01/16 09:21:58;;;;;;;20.10;9.03;;;;;;;-2.41;67.40;96568.44;1835417;78;21046;-66
2022/01/16 09:24:25;;;;;;;16.67;10.03;;;;;;;-2.04;66.96;96559.77;1834910;78;21020;-66
2022/01/16 09:26:54;;;;;;;22.70;11.90;;;;;;;-1.70;65.21;96543.17;1835118;78;21003;-67
2022/01/16 09:29:19;;;;;;;19.90;11.40;;;;;;;-1.50;64.92;96542.74;1835177;78;21016;-66
2022/01/16 09:31:46;;;;;;;22.87;11.77;;;;;;;-1.53;62.62;96538.32;1835186;78;20980;-66
2022/01/16 09:34:12;;;;;;;23.17;12.73;;;;;;;-1.53;61.69;96528.84;1835244;78;20987;-67
2022/01/16 09:36:40;;;;;;;19.47;10.83;;;;;;;-1.41;60.96;96528.88;1834678;78;21135;-66
2022/01/16 09:39:07;;;;;;;13.87;7.47;;;;;;;-1.28;61.51;96523.83;1835160;78;20975;-66
2022/01/16 09:41:33;;;;;;;11.93;6.87;;;;;;;-1.18;62.02;96519.52;1834835;78;21079;-66
2022/01/16 09:44:01;;;;;;;27.73;12.60;;;;;;;-0.95;60.85;96517.44;1835105;78;20951;-66
2022/01/16 09:46:28;;;;;;;16.70;7.50;;;;;;;-0.64;60.88;96513.47;1835212;78;21039;-66
2022/01/16 09:48:55;;;;;;;20.63;11.63;;;;;;;-0.45;58.84;96501.70;1835274;78;21421;-66
2022/01/16 09:51:21;;;;;;;25.03;12.60;;;;;;;-0.42;58.14;96502.23;1837467;78;21022;-66
2022/01/16 09:53:48;;;;;;;14.83;8.87;;;;;;;-0.32;59.00;96500.45;1837579;78;20984;-66
2022/01/16 09:56:14;;;;;;;23.50;11.80;;;;;;;-0.14;59.77;96493.77;1837270;78;21074;-66
2022/01/16 09:58:41;;;;;;;15.00;9.00;;;;;;;-0.04;59.79;96485.49;1837403;78;21023;-66
2022/01/16 10:01:08;;;;;;;10.10;6.10;;;;;;;0.16;58.39;96478.85;1837168;78;21082;-66
2022/01/16 10:03:42;;;;;;;11.07;6.57;;;;;;;0.26;55.67;96479.64;1837579;78;20948;-66
2022/01/16 10:06:21;;;;;;;11.53;7.37;;;;;;;0.59;55.40;96477.74;1837385;78;21003;-66
2022/01/16 10:08:51;;;;;;;14.43;7.53;;;;;;;1.18;56.71;96480.53;1837634;78;20979;-66
2022/01/16 10:11:36;;;;;;;14.67;8.03;;;;;;;1.67;54.22;96465.15;1837626;78;20952;-66
2022/01/16 10:14:22;;;;;;;13.22;7.62;;;;;;;2.24;54.93;96461.12;1837214;78;21022;-66
2022/01/16 10:16:44;;;;;;;9.30;4.25;;;;;;;2.65;53.50;96462.66;1836417;78;21489;-66
2022/01/16 10:19:31;;;;;;;7.93;3.87;;;;;;;3.29;51.64;96441.63;1837491;78;20974;-67
2022/01/16 10:22:05;;;;;;;6.47;3.27;;;;;;;3.96;51.38;96447.02;1837182;78;20972;-68
2022/01/16 10:24:34;;;;;;;7.70;3.97;;;;;;;4.78;46.52;96442.89;1836992;78;21014;-69
2022/01/16 10:27:17;;;;;;;7.33;3.90;;;;;;;5.21;42.12;96423.55;1837297;78;20952;-68
2022/01/16 10:29:56;;;;;;;7.10;3.83;;;;;;;5.64;44.29;96428.13;1837584;78;21501;-68
2022/01/16 10:32:23;;;;;;;5.43;4.00;;;;;;;6.12;42.23;96423.95;1835712;78;21066;-68
2022/01/16 10:35:10;;;;;;;6.70;4.07;;;;;;;6.38;41.60;96419.03;1837465;78;21050;-66
2022/01/16 10:37:38;;;;;;;7.17;4.53;;;;;;;6.79;41.77;96405.45;1837405;78;21107;-66
2022/01/16 10:40:22;;;;;;;8.13;4.40;;;;;;;6.90;38.97;96402.06;1837324;78;21054;-65
2022/01/16 10:42:51;;;;;;;6.95;4.45;;;;;;;7.20;39.77;96398.34;1837691;78;21062;-65
2022/01/16 10:45:25;;;;;;;6.22;4.25;;;;;;;7.47;37.23;96389.78;1837616;78;21003;-65
2022/01/16 10:47:54;;;;;;;7.08;4.30;;;;;;;7.79;39.31;96393.91;1837396;78;21534;-65
2022/01/16 10:50:25;;;;;;;8.85;5.10;;;;;;;8.03;37.17;96402.33;1834396;78;21624;-65
2022/01/16 10:53:15;;;;;;;8.23;5.17;;;;;;;8.40;37.63;96397.23;1831582;78;21006;-65
2022/01/16 10:55:51;;;;;;;7.75;5.72;;;;;;;8.37;34.87;96388.87;1831160;78;21111;-65
2022/01/16 10:58:28;;;;;;;9.80;6.10;;;;;;;8.31;34.80;96392.78;1831613;78;21060;-65
2022/01/16 11:01:03;;;;;;;9.13;5.90;;;;;;;8.40;34.92;96385.41;1831486;78;21541;-65
2022/01/16 11:03:39;;;;;;;8.55;6.17;;;;;;;8.61;34.73;96380.62;1831334;78;21015;-64
2022/01/16 11:06:06;;;;;;;8.45;6.08;;;;;;;8.87;33.73;96388.13;1831506;78;21050;-65
2022/01/16 11:08:34;;;;;;;10.18;5.95;;;;;;;8.84;32.57;96382.86;1831593;78;20984;-65
2022/01/16 11:11:00;;;;;;;10.38;6.60;;;;;;;8.77;31.96;96372.30;1831648;78;21456;-65
2022/01/16 11:13:32;;;;;;;9.40;6.83;;;;;;;9.06;32.66;96373.64;1831312;78;21075;-64
2022/01/16 11:16:04;;;;;;;10.53;6.47;;;;;;;9.17;33.09;96377.16;1831391;78;21046;-64
2022/01/16 11:18:35;;;;;;;8.40;6.42;;;;;;;8.94;32.47;96373.63;1831720;78;21034;-65
2022/01/16 11:23:33;;;;;;;11.65;7.00;;;;;;;9.11;32.50;96363.98;1831488;78;21047;-65
2022/01/16 11:26:06;;;;;;;13.00;9.00;;;;;;;9.35;31.53;96365.73;1831745;78;20973;-65
2022/01/16 11:28:33;;;;;;;11.28;8.43;;;;;;;9.76;31.84;96360.80;1831517;78;21063;-65
2022/01/16 11:31:04;;;;;;;13.48;8.68;;;;;;;9.15;32.70;96360.89;1831615;78;21039;-65
2022/01/16 11:33:33;;;;;;;12.78;9.25;;;;;;;8.24;31.97;96359.48;1831584;78;20991;-65
2022/01/16 11:36:13;;;;;;;18.85;11.78;;;;;;;8.10;34.24;96367.75;1830899;78;21003;-65
2022/01/16 11:38:47;;;;;;;18.00;12.05;;;;;;;8.22;34.29;96366.48;1831753;78;21043;-64
2022/01/16 11:41:32;;;;;;;19.40;12.23;;;;;;;8.22;33.17;96362.09;1831688;78;21043;-65
2022/01/16 11:44:04;;;;;;;19.00;10.78;;;;;;;7.85;33.47;96370.28;1831241;78;21563;-64
2022/01/16 11:46:35;;;;;;;21.35;12.07;;;;;;;8.08;33.00;96366.42;1831409;78;21023;-65
2022/01/16 11:49:06;;;;;;;25.35;12.05;;;;;;;7.92;33.04;96357.61;1831780;78;21036;-65
2022/01/16 11:51:41;;;;;;;16.25;9.35;;;;;;;7.79;32.18;96355.38;1833032;78;21032;-65
2022/01/16 11:54:11;;;;;;;14.90;9.25;;;;;;;8.00;31.96;96351.94;1835412;78;20999;-64
2022/01/16 11:56:43;;;;;;;13.48;9.60;;;;;;;8.31;32.91;96340.20;1835068;78;21060;-65
2022/01/16 11:59:24;;;;;;;18.45;12.07;;;;;;;8.67;31.72;96337.23;1835199;78;21002;-65
2022/01/16 12:02:13;;;;;;;13.45;9.85;;;;;;;8.73;31.41;96341.62;1835239;78;21019;-65
2022/01/16 12:04:48;;;;;;;11.78;7.58;;;;;;;8.71;31.96;96341.60;1835259;78;21016;-65
2022/01/16 12:07:26;;;;;;;15.47;9.47;;;;;;;8.08;31.88;96340.58;1835316;78;21473;-65
2022/01/16 12:09:57;;;;;;;14.55;9.55;;;;;;;8.34;31.97;96334.97;1835314;78;20936;-65
2022/01/16 12:12:27;;;;;;;14.50;9.20;;;;;;;8.15;31.70;96343.23;1762824;81;20975;-65
2022/01/16 12:15:08;;;;;;;13.63;8.70;;;;;;;8.23;32.25;96328.34;1768261;81;21070;-65
2022/01/16 12:17:51;;;;;;;18.62;11.83;;;;;;;8.46;32.55;96330.17;1766347;81;21508;-65
2022/01/16 12:20:23;;;;;;;40.73;26.12;;;;;;;8.86;31.80;96321.00;1766564;81;21018;-65
2022/01/16 12:23:04;;;;;;;27.65;18.67;;;;;;;9.45;32.31;96316.09;1795791;80;21017;-65
2022/01/16 12:25:45;;;;;;;10.32;7.80;;;;;;;9.46;32.17;96324.42;1795416;80;21025;-65